sensor_id;sensor_type;location;lat;lon;timestamp;temperature;humidity
29687;DHT22;16599;47.078;15.536;2022-10-19T00:01:21;10.80;99.90
29687;DHT22;16599;47.078;15.536;2022-10-19T00:03:48;10.80;99.90
29687;DHT22;16599;47.078;15.536;2022-10-19T00:06:29;10.90;99.90
29687;DHT22;16599;47.078;15.536;2022-10-19T00:09:07;10.90;99.90
29687;DHT22;16599;47.078;15.536;2022-10-19T00:11:38;10.90;99.90
29687;DHT22;16599;47.078;15.536;2022-10-19T00:14:05;10.90;99.90
29687;DHT22;16599;47.078;15.536;2022-10-19T00:16:35;11.20;99.90
29687;DHT22;16599;47.078;15.536;2022-10-19T00:19:05;11.20;99.90
29687;DHT22;16599;47.078;15.536;2022-10-19T00:21:33;11.30;99.90
29687;DHT22;16599;47.078;15.536;2022-10-19T00:24:00;11.20;99.90
29687;DHT22;16599;47.078;15.536;2022-10-19T00:26:27;11.30;99.90
29687;DHT22;16599;47.078;15.536;2022-10-19T00:28:54;11.40;99.90
29687;DHT22;16599;47.078;15.536;2022-10-19T00:31:22;11.40;99.90
29687;DHT22;16599;47.078;15.536;2022-10-19T00:33:49;11.40;99.90
29687;DHT22;16599;47.078;15.536;2022-10-19T00:36:37;11.30;99.90
29687;DHT22;16599;47.078;15.536;2022-10-19T00:39:07;11.30;99.90
29687;DHT22;16599;47.078;15.536;2022-10-19T00:41:35;11.30;99.90
29687;DHT22;16599;47.078;15.536;2022-10-19T00:46:43;11.40;99.90
29687;DHT22;16599;47.078;15.536;2022-10-19T00:49:20;11.30;99.90
29687;DHT22;16599;47.078;15.536;2022-10-19T00:51:50;11.20;99.90
29687;DHT22;16599;47.078;15.536;2022-10-19T00:54:19;11.20;99.90
29687;DHT22;16599;47.078;15.536;2022-10-19T00:56:48;11.30;99.90
29687;DHT22;16599;47.078;15.536;2022-10-19T00:59:19;11.30;99.90
29687;DHT22;16599;47.078;15.536;2022-10-19T01:01:48;11.40;99.90
29687;DHT22;16599;47.078;15.536;2022-10-19T01:04:15;11.40;99.90
29687;DHT22;16599;47.078;15.536;2022-10-19T01:06:42;11.40;99.90
29687;DHT22;16599;47.078;15.536;2022-10-19T01:09:09;11.40;99.90
29687;DHT22;16599;47.078;15.536;2022-10-19T01:14:41;11.40;99.90
29687;DHT22;16599;47.078;15.536;2022-10-19T01:25:45;11.60;99.90
29687;DHT22;16599;47.078;15.536;2022-10-19T01:31:00;11.40;99.90
29687;DHT22;16599;47.078;15.536;2022-10-19T01:34:05;11.20;99.90
29687;DHT22;16599;47.078;15.536;2022-10-19T01:42:14;11.00;99.90
29687;DHT22;16599;47.078;15.536;2022-10-19T01:45:03;11.20;99.90
29687;DHT22;16599;47.078;15.536;2022-10-19T01:47:35;10.80;99.90
29687;DHT22;16599;47.078;15.536;2022-10-19T01:50:25;10.90;99.90
29687;DHT22;16599;47.078;15.536;2022-10-19T01:52:54;10.90;99.90
29687;DHT22;16599;47.078;15.536;2022-10-19T01:55:23;10.90;99.90
29687;DHT22;16599;47.078;15.536;2022-10-19T01:57:57;11.00;99.90
29687;DHT22;16599;47.078;15.536;2022-10-19T02:00:26;11.00;99.90
29687;DHT22;16599;47.078;15.536;2022-10-19T02:02:55;11.00;99.90
29687;DHT22;16599;47.078;15.536;2022-10-19T02:05:28;11.00;99.90
29687;DHT22;16599;47.078;15.536;2022-10-19T02:08:02;10.90;99.90
29687;DHT22;16599;47.078;15.536;2022-10-19T02:10:31;10.80;99.90
29687;DHT22;16599;47.078;15.536;2022-10-19T02:13:01;10.60;99.90
29687;DHT22;16599;47.078;15.536;2022-10-19T02:15:31;10.60;99.90
29687;DHT22;16599;47.078;15.536;2022-10-19T02:18:00;10.40;99.90
29687;DHT22;16599;47.078;15.536;2022-10-19T02:20:28;10.50;99.90
29687;DHT22;16599;47.078;15.536;2022-10-19T02:22:56;10.50;99.90
29687;DHT22;16599;47.078;15.536;2022-10-19T02:25:23;10.50;99.90
29687;DHT22;16599;47.078;15.536;2022-10-19T02:27:50;10.10;99.90
29687;DHT22;16599;47.078;15.536;2022-10-19T02:30:19;10.20;99.90
29687;DHT22;16599;47.078;15.536;2022-10-19T02:32:48;10.50;99.90
29687;DHT22;16599;47.078;15.536;2022-10-19T02:35:15;10.30;99.90
29687;DHT22;16599;47.078;15.536;2022-10-19T02:37:42;10.50;99.90
29687;DHT22;16599;47.078;15.536;2022-10-19T02:40:11;10.50;99.90
29687;DHT22;16599;47.078;15.536;2022-10-19T02:42:42;10.10;99.90
29687;DHT22;16599;47.078;15.536;2022-10-19T02:45:17;10.30;99.90
29687;DHT22;16599;47.078;15.536;2022-10-19T02:47:53;10.50;99.90
29687;DHT22;16599;47.078;15.536;2022-10-19T02:50:22;10.30;99.90
29687;DHT22;16599;47.078;15.536;2022-10-19T02:52:49;10.30;99.90
29687;DHT22;16599;47.078;15.536;2022-10-19T02:55:16;10.20;99.90
29687;DHT22;16599;47.078;15.536;2022-10-19T02:57:43;10.30;99.90
29687;DHT22;16599;47.078;15.536;2022-10-19T03:00:11;10.30;99.90
29687;DHT22;16599;47.078;15.536;2022-10-19T03:02:37;10.60;99.90
29687;DHT22;16599;47.078;15.536;2022-10-19T03:05:04;10.50;99.90
29687;DHT22;16599;47.078;15.536;2022-10-19T03:07:31;10.50;99.90
29687;DHT22;16599;47.078;15.536;2022-10-19T03:09:59;10.30;99.90
29687;DHT22;16599;47.078;15.536;2022-10-19T03:12:25;10.40;99.90
29687;DHT22;16599;47.078;15.536;2022-10-19T03:14:52;10.60;99.90
29687;DHT22;16599;47.078;15.536;2022-10-19T03:17:19;10.50;99.90
29687;DHT22;16599;47.078;15.536;2022-10-19T03:19:46;10.60;99.90
29687;DHT22;16599;47.078;15.536;2022-10-19T03:22:13;10.60;99.90
29687;DHT22;16599;47.078;15.536;2022-10-19T03:24:40;10.20;99.90
29687;DHT22;16599;47.078;15.536;2022-10-19T03:27:07;10.20;99.90
29687;DHT22;16599;47.078;15.536;2022-10-19T03:29:34;10.20;99.90
29687;DHT22;16599;47.078;15.536;2022-10-19T03:32:01;10.00;99.90
29687;DHT22;16599;47.078;15.536;2022-10-19T03:34:28;10.10;99.90
29687;DHT22;16599;47.078;15.536;2022-10-19T03:36:54;10.20;99.90
29687;DHT22;16599;47.078;15.536;2022-10-19T03:39:22;10.10;99.90
29687;DHT22;16599;47.078;15.536;2022-10-19T03:41:49;10.30;99.90
29687;DHT22;16599;47.078;15.536;2022-10-19T03:44:15;10.40;99.90
29687;DHT22;16599;47.078;15.536;2022-10-19T03:46:42;10.50;99.90
29687;DHT22;16599;47.078;15.536;2022-10-19T03:49:09;10.50;99.90
29687;DHT22;16599;47.078;15.536;2022-10-19T03:51:37;10.40;99.90
29687;DHT22;16599;47.078;15.536;2022-10-19T03:54:05;10.40;99.90
29687;DHT22;16599;47.078;15.536;2022-10-19T03:56:34;10.60;99.90
29687;DHT22;16599;47.078;15.536;2022-10-19T03:59:03;10.80;99.90
29687;DHT22;16599;47.078;15.536;2022-10-19T04:04:01;10.90;99.90
29687;DHT22;16599;47.078;15.536;2022-10-19T04:06:34;10.90;99.90
29687;DHT22;16599;47.078;15.536;2022-10-19T04:09:02;11.00;99.90
29687;DHT22;16599;47.078;15.536;2022-10-19T04:11:29;11.00;99.90
29687;DHT22;16599;47.078;15.536;2022-10-19T04:13:57;11.00;99.90
29687;DHT22;16599;47.078;15.536;2022-10-19T04:16:27;11.00;99.90
29687;DHT22;16599;47.078;15.536;2022-10-19T04:18:54;11.00;99.90
29687;DHT22;16599;47.078;15.536;2022-10-19T04:21:29;11.10;99.90
29687;DHT22;16599;47.078;15.536;2022-10-19T04:23:59;11.10;99.90
29687;DHT22;16599;47.078;15.536;2022-10-19T04:26:26;11.20;99.90
29687;DHT22;16599;47.078;15.536;2022-10-19T04:28:56;11.20;99.90
29687;DHT22;16599;47.078;15.536;2022-10-19T04:31:23;11.30;99.90
29687;DHT22;16599;47.078;15.536;2022-10-19T04:33:51;11.30;99.90
29687;DHT22;16599;47.078;15.536;2022-10-19T04:36:18;11.30;99.90
29687;DHT22;16599;47.078;15.536;2022-10-19T04:38:45;11.40;99.90
29687;DHT22;16599;47.078;15.536;2022-10-19T04:41:14;11.30;99.90
29687;DHT22;16599;47.078;15.536;2022-10-19T04:43:41;11.30;99.90
29687;DHT22;16599;47.078;15.536;2022-10-19T04:46:18;11.20;99.90
29687;DHT22;16599;47.078;15.536;2022-10-19T04:48:46;11.20;99.90
29687;DHT22;16599;47.078;15.536;2022-10-19T04:51:14;11.20;99.90
29687;DHT22;16599;47.078;15.536;2022-10-19T04:53:42;11.40;99.90
29687;DHT22;16599;47.078;15.536;2022-10-19T04:56:21;11.40;99.90
29687;DHT22;16599;47.078;15.536;2022-10-19T04:58:48;11.30;99.90
29687;DHT22;16599;47.078;15.536;2022-10-19T05:01:19;11.20;99.90
29687;DHT22;16599;47.078;15.536;2022-10-19T05:03:47;11.30;99.90
29687;DHT22;16599;47.078;15.536;2022-10-19T05:06:14;11.40;99.90
29687;DHT22;16599;47.078;15.536;2022-10-19T05:08:41;11.30;99.90
29687;DHT22;16599;47.078;15.536;2022-10-19T05:11:13;11.30;99.90
29687;DHT22;16599;47.078;15.536;2022-10-19T05:13:40;11.40;99.90
29687;DHT22;16599;47.078;15.536;2022-10-19T05:16:12;11.40;99.90
29687;DHT22;16599;47.078;15.536;2022-10-19T05:18:39;11.40;99.90
29687;DHT22;16599;47.078;15.536;2022-10-19T05:23:34;11.30;99.90
29687;DHT22;16599;47.078;15.536;2022-10-19T05:26:13;11.40;99.90
29687;DHT22;16599;47.078;15.536;2022-10-19T05:28:41;11.40;99.90
29687;DHT22;16599;47.078;15.536;2022-10-19T05:31:12;11.40;99.90
29687;DHT22;16599;47.078;15.536;2022-10-19T05:33:40;11.40;99.90
29687;DHT22;16599;47.078;15.536;2022-10-19T05:36:26;11.40;99.90
29687;DHT22;16599;47.078;15.536;2022-10-19T05:38:55;11.50;99.90
29687;DHT22;16599;47.078;15.536;2022-10-19T05:41:23;11.30;99.90
29687;DHT22;16599;47.078;15.536;2022-10-19T05:43:53;11.20;99.90
29687;DHT22;16599;47.078;15.536;2022-10-19T05:46:20;11.30;99.90
29687;DHT22;16599;47.078;15.536;2022-10-19T05:48:47;11.30;99.90
29687;DHT22;16599;47.078;15.536;2022-10-19T05:51:19;11.40;99.90
29687;DHT22;16599;47.078;15.536;2022-10-19T05:53:46;11.40;99.90
29687;DHT22;16599;47.078;15.536;2022-10-19T05:56:18;11.50;99.90
29687;DHT22;16599;47.078;15.536;2022-10-19T05:58:45;11.60;99.90
29687;DHT22;16599;47.078;15.536;2022-10-19T06:01:13;11.70;99.90
29687;DHT22;16599;47.078;15.536;2022-10-19T06:03:41;11.70;99.90
29687;DHT22;16599;47.078;15.536;2022-10-19T06:06:08;11.70;99.90
29687;DHT22;16599;47.078;15.536;2022-10-19T06:08:36;11.80;99.90
29687;DHT22;16599;47.078;15.536;2022-10-19T06:11:12;11.70;99.90
29687;DHT22;16599;47.078;15.536;2022-10-19T06:13:41;11.80;99.90
29687;DHT22;16599;47.078;15.536;2022-10-19T06:16:10;11.80;99.90
29687;DHT22;16599;47.078;15.536;2022-10-19T06:18:38;11.90;99.90
29687;DHT22;16599;47.078;15.536;2022-10-19T06:21:08;11.90;99.90
29687;DHT22;16599;47.078;15.536;2022-10-19T06:23:36;12.00;99.90
29687;DHT22;16599;47.078;15.536;2022-10-19T06:26:06;12.00;99.90
29687;DHT22;16599;47.078;15.536;2022-10-19T06:28:34;12.10;99.90
29687;DHT22;16599;47.078;15.536;2022-10-19T06:31:01;12.20;99.90
29687;DHT22;16599;47.078;15.536;2022-10-19T06:33:32;12.20;99.90
29687;DHT22;16599;47.078;15.536;2022-10-19T06:36:18;12.30;99.90
29687;DHT22;16599;47.078;15.536;2022-10-19T07:03:00;13.10;99.90
29687;DHT22;16599;47.078;15.536;2022-10-19T07:05:27;13.20;99.90
29687;DHT22;16599;47.078;15.536;2022-10-19T07:07:53;13.20;99.90
29687;DHT22;16599;47.078;15.536;2022-10-19T07:10:20;13.30;99.90
29687;DHT22;16599;47.078;15.536;2022-10-19T07:12:47;13.20;99.90
29687;DHT22;16599;47.078;15.536;2022-10-19T07:15:14;13.30;99.90
29687;DHT22;16599;47.078;15.536;2022-10-19T07:17:40;13.20;99.90
29687;DHT22;16599;47.078;15.536;2022-10-19T07:20:08;13.30;99.90
29687;DHT22;16599;47.078;15.536;2022-10-19T07:22:36;13.30;99.90
29687;DHT22;16599;47.078;15.536;2022-10-19T07:25:03;13.30;99.90
29687;DHT22;16599;47.078;15.536;2022-10-19T07:27:30;13.40;99.90
29687;DHT22;16599;47.078;15.536;2022-10-19T07:30:03;13.50;99.90
29687;DHT22;16599;47.078;15.536;2022-10-19T07:32:30;13.50;99.90
29687;DHT22;16599;47.078;15.536;2022-10-19T07:34:56;13.50;99.90
29687;DHT22;16599;47.078;15.536;2022-10-19T07:37:23;13.50;99.90
29687;DHT22;16599;47.078;15.536;2022-10-19T07:39:50;13.40;99.90
29687;DHT22;16599;47.078;15.536;2022-10-19T07:42:17;13.40;99.90
29687;DHT22;16599;47.078;15.536;2022-10-19T07:44:44;13.40;99.90
29687;DHT22;16599;47.078;15.536;2022-10-19T07:47:10;13.50;99.90
29687;DHT22;16599;47.078;15.536;2022-10-19T07:49:37;13.60;99.90
29687;DHT22;16599;47.078;15.536;2022-10-19T07:52:05;13.80;99.90
29687;DHT22;16599;47.078;15.536;2022-10-19T07:54:32;13.80;99.90
29687;DHT22;16599;47.078;15.536;2022-10-19T07:56:59;14.00;99.90
29687;DHT22;16599;47.078;15.536;2022-10-19T07:59:25;14.00;99.90
29687;DHT22;16599;47.078;15.536;2022-10-19T08:01:52;14.00;99.90
29687;DHT22;16599;47.078;15.536;2022-10-19T08:04:20;14.00;99.90
29687;DHT22;16599;47.078;15.536;2022-10-19T08:07:07;14.10;99.90
29687;DHT22;16599;47.078;15.536;2022-10-19T08:09:33;14.10;99.90
29687;DHT22;16599;47.078;15.536;2022-10-19T08:12:20;14.10;99.90
29687;DHT22;16599;47.078;15.536;2022-10-19T08:14:47;14.20;99.90
29687;DHT22;16599;47.078;15.536;2022-10-19T08:17:14;14.20;99.90
29687;DHT22;16599;47.078;15.536;2022-10-19T08:19:44;14.30;99.90
29687;DHT22;16599;47.078;15.536;2022-10-19T08:22:12;14.10;99.90
29687;DHT22;16599;47.078;15.536;2022-10-19T08:24:39;14.20;99.90
29687;DHT22;16599;47.078;15.536;2022-10-19T08:27:05;14.10;99.90
29687;DHT22;16599;47.078;15.536;2022-10-19T08:29:32;14.10;99.90
29687;DHT22;16599;47.078;15.536;2022-10-19T08:31:59;14.10;99.90
29687;DHT22;16599;47.078;15.536;2022-10-19T08:34:26;14.10;99.90
29687;DHT22;16599;47.078;15.536;2022-10-19T08:36:53;14.00;99.90
29687;DHT22;16599;47.078;15.536;2022-10-19T08:39:19;14.10;99.90
29687;DHT22;16599;47.078;15.536;2022-10-19T08:42:04;14.00;99.90
29687;DHT22;16599;47.078;15.536;2022-10-19T08:44:56;14.10;99.90
29687;DHT22;16599;47.078;15.536;2022-10-19T08:50:18;14.10;99.90
29687;DHT22;16599;47.078;15.536;2022-10-19T08:52:59;14.10;99.90
29687;DHT22;16599;47.078;15.536;2022-10-19T08:55:48;14.10;99.90
29687;DHT22;16599;47.078;15.536;2022-10-19T08:58:21;14.20;99.90
29687;DHT22;16599;47.078;15.536;2022-10-19T09:00:53;14.20;99.90
29687;DHT22;16599;47.078;15.536;2022-10-19T09:06:31;14.40;99.90
29687;DHT22;16599;47.078;15.536;2022-10-19T09:09:00;14.40;99.90
29687;DHT22;16599;47.078;15.536;2022-10-19T09:11:33;14.50;99.90
29687;DHT22;16599;47.078;15.536;2022-10-19T09:15:04;14.60;99.90
29687;DHT22;16599;47.078;15.536;2022-10-19T09:17:13;14.50;99.90
29687;DHT22;16599;47.078;15.536;2022-10-19T09:19:41;14.60;99.90
29687;DHT22;16599;47.078;15.536;2022-10-19T09:22:24;14.60;99.90
29687;DHT22;16599;47.078;15.536;2022-10-19T09:25:05;14.70;99.90
29687;DHT22;16599;47.078;15.536;2022-10-19T09:27:39;14.70;99.90
29687;DHT22;16599;47.078;15.536;2022-10-19T09:30:18;14.80;99.90
29687;DHT22;16599;47.078;15.536;2022-10-19T09:32:47;14.80;99.90
29687;DHT22;16599;47.078;15.536;2022-10-19T09:37:48;15.00;99.90
29687;DHT22;16599;47.078;15.536;2022-10-19T09:40:26;15.00;99.90
29687;DHT22;16599;47.078;15.536;2022-10-19T09:42:53;15.10;99.90
29687;DHT22;16599;47.078;15.536;2022-10-19T09:45:29;15.20;99.90
29687;DHT22;16599;47.078;15.536;2022-10-19T09:47:57;15.20;99.90
29687;DHT22;16599;47.078;15.536;2022-10-19T09:50:42;15.30;99.90
29687;DHT22;16599;47.078;15.536;2022-10-19T09:53:17;15.30;99.90
29687;DHT22;16599;47.078;15.536;2022-10-19T09:55:50;15.40;99.90
29687;DHT22;16599;47.078;15.536;2022-10-19T09:58:19;15.60;99.90
29687;DHT22;16599;47.078;15.536;2022-10-19T10:00:49;15.70;99.90
29687;DHT22;16599;47.078;15.536;2022-10-19T10:03:29;15.80;99.90
29687;DHT22;16599;47.078;15.536;2022-10-19T10:06:07;16.00;99.90
29687;DHT22;16599;47.078;15.536;2022-10-19T10:08:48;16.30;99.90
29687;DHT22;16599;47.078;15.536;2022-10-19T10:11:43;16.50;99.90
29687;DHT22;16599;47.078;15.536;2022-10-19T10:16:55;16.80;99.90
29687;DHT22;16599;47.078;15.536;2022-10-19T10:19:27;16.90;99.90
29687;DHT22;16599;47.078;15.536;2022-10-19T10:21:56;16.80;99.90
29687;DHT22;16599;47.078;15.536;2022-10-19T10:24:28;17.10;99.90
29687;DHT22;16599;47.078;15.536;2022-10-19T10:26:57;17.10;99.90
29687;DHT22;16599;47.078;15.536;2022-10-19T10:29:36;16.90;99.90
29687;DHT22;16599;47.078;15.536;2022-10-19T10:34:39;17.10;99.90
29687;DHT22;16599;47.078;15.536;2022-10-19T10:40:03;16.80;99.90
29687;DHT22;16599;47.078;15.536;2022-10-19T10:42:42;16.80;99.90
29687;DHT22;16599;47.078;15.536;2022-10-19T10:45:33;16.70;99.90
29687;DHT22;16599;47.078;15.536;2022-10-19T10:48:28;17.20;99.90
29687;DHT22;16599;47.078;15.536;2022-10-19T10:50:57;17.40;99.90
29687;DHT22;16599;47.078;15.536;2022-10-19T10:53:41;17.60;99.90
29687;DHT22;16599;47.078;15.536;2022-10-19T10:56:25;17.70;99.90
29687;DHT22;16599;47.078;15.536;2022-10-19T10:59:03;17.70;99.90
29687;DHT22;16599;47.078;15.536;2022-10-19T11:01:44;17.70;99.90
29687;DHT22;16599;47.078;15.536;2022-10-19T11:04:19;17.60;99.90
29687;DHT22;16599;47.078;15.536;2022-10-19T11:06:54;17.50;99.90
29687;DHT22;16599;47.078;15.536;2022-10-19T11:09:34;17.30;99.90
29687;DHT22;16599;47.078;15.536;2022-10-19T11:12:04;17.40;99.90
29687;DHT22;16599;47.078;15.536;2022-10-19T11:14:35;17.50;99.90
29687;DHT22;16599;47.078;15.536;2022-10-19T11:17:05;17.90;99.90
29687;DHT22;16599;47.078;15.536;2022-10-19T11:19:38;17.70;99.90
29687;DHT22;16599;47.078;15.536;2022-10-19T11:28:01;18.20;99.90
29687;DHT22;16599;47.078;15.536;2022-10-19T11:30:34;18.00;99.90
29687;DHT22;16599;47.078;15.536;2022-10-19T11:36:01;18.30;99.90
29687;DHT22;16599;47.078;15.536;2022-10-19T11:41:37;18.10;99.90
29687;DHT22;16599;47.078;15.536;2022-10-19T11:44:08;18.30;99.90
29687;DHT22;16599;47.078;15.536;2022-10-19T11:52:24;18.50;99.90
29687;DHT22;16599;47.078;15.536;2022-10-19T11:55:24;18.60;99.90
29687;DHT22;16599;47.078;15.536;2022-10-19T12:07:00;18.70;99.90
29687;DHT22;16599;47.078;15.536;2022-10-19T12:14:50;18.40;99.90
29687;DHT22;16599;47.078;15.536;2022-10-19T12:17:24;18.30;99.90
29687;DHT22;16599;47.078;15.536;2022-10-19T12:20:00;18.50;99.90
29687;DHT22;16599;47.078;15.536;2022-10-19T12:22:29;18.50;99.90
29687;DHT22;16599;47.078;15.536;2022-10-19T12:25:00;18.50;99.90
29687;DHT22;16599;47.078;15.536;2022-10-19T12:27:37;18.30;99.90
29687;DHT22;16599;47.078;15.536;2022-10-19T12:30:28;18.30;99.90
29687;DHT22;16599;47.078;15.536;2022-10-19T12:33:17;18.00;99.90
29687;DHT22;16599;47.078;15.536;2022-10-19T12:38:41;18.00;99.90
29687;DHT22;16599;47.078;15.536;2022-10-19T12:44:32;18.20;99.90
29687;DHT22;16599;47.078;15.536;2022-10-19T12:47:22;18.10;99.90
29687;DHT22;16599;47.078;15.536;2022-10-19T12:49:50;17.90;99.90
29687;DHT22;16599;47.078;15.536;2022-10-19T12:57:47;17.90;99.90
29687;DHT22;16599;47.078;15.536;2022-10-19T13:00:24;17.80;99.90
29687;DHT22;16599;47.078;15.536;2022-10-19T13:05:31;18.30;99.90
29687;DHT22;16599;47.078;15.536;2022-10-19T13:08:01;18.70;99.90
29687;DHT22;16599;47.078;15.536;2022-10-19T13:10:30;18.70;99.90
29687;DHT22;16599;47.078;15.536;2022-10-19T13:12:57;19.00;99.90
29687;DHT22;16599;47.078;15.536;2022-10-19T13:18:11;18.50;99.90
29687;DHT22;16599;47.078;15.536;2022-10-19T13:25:34;19.30;99.90
29687;DHT22;16599;47.078;15.536;2022-10-19T13:43:32;19.20;99.90
29687;DHT22;16599;47.078;15.536;2022-10-19T14:02:00;18.10;99.90
29687;DHT22;16599;47.078;15.536;2022-10-19T14:04:48;18.10;99.90
29687;DHT22;16599;47.078;15.536;2022-10-19T14:07:28;18.10;99.90
29687;DHT22;16599;47.078;15.536;2022-10-19T14:10:05;18.10;99.90
29687;DHT22;16599;47.078;15.536;2022-10-19T14:12:36;18.20;99.90
29687;DHT22;16599;47.078;15.536;2022-10-19T14:15:33;18.10;99.90
29687;DHT22;16599;47.078;15.536;2022-10-19T14:18:00;18.20;99.90
29687;DHT22;16599;47.078;15.536;2022-10-19T14:20:34;18.10;99.90
29687;DHT22;16599;47.078;15.536;2022-10-19T14:23:25;17.90;99.90
29687;DHT22;16599;47.078;15.536;2022-10-19T14:26:18;17.90;99.90
29687;DHT22;16599;47.078;15.536;2022-10-19T14:28:54;18.00;99.90
29687;DHT22;16599;47.078;15.536;2022-10-19T14:31:33;18.00;99.90
29687;DHT22;16599;47.078;15.536;2022-10-19T14:34:02;18.00;99.90
29687;DHT22;16599;47.078;15.536;2022-10-19T14:36:34;18.10;99.90
29687;DHT22;16599;47.078;15.536;2022-10-19T14:39:01;17.90;99.90
29687;DHT22;16599;47.078;15.536;2022-10-19T14:41:31;18.00;99.90
29687;DHT22;16599;47.078;15.536;2022-10-19T14:43:59;18.00;99.90
29687;DHT22;16599;47.078;15.536;2022-10-19T14:46:33;18.00;99.90
29687;DHT22;16599;47.078;15.536;2022-10-19T14:49:02;18.10;99.90
29687;DHT22;16599;47.078;15.536;2022-10-19T14:51:32;18.00;99.90
29687;DHT22;16599;47.078;15.536;2022-10-19T14:54:07;17.90;99.90
29687;DHT22;16599;47.078;15.536;2022-10-19T14:56:45;17.70;99.90
29687;DHT22;16599;47.078;15.536;2022-10-19T14:59:27;17.70;99.90
29687;DHT22;16599;47.078;15.536;2022-10-19T15:02:00;17.60;99.90
29687;DHT22;16599;47.078;15.536;2022-10-19T15:04:33;17.50;99.90
29687;DHT22;16599;47.078;15.536;2022-10-19T15:07:17;17.50;99.90
29687;DHT22;16599;47.078;15.536;2022-10-19T15:09:52;17.40;99.90
29687;DHT22;16599;47.078;15.536;2022-10-19T15:12:26;17.40;99.90
29687;DHT22;16599;47.078;15.536;2022-10-19T15:14:53;17.30;99.90
29687;DHT22;16599;47.078;15.536;2022-10-19T15:17:30;17.30;99.90
29687;DHT22;16599;47.078;15.536;2022-10-19T15:20:26;17.20;99.90
29687;DHT22;16599;47.078;15.536;2022-10-19T15:22:54;17.10;99.90
29687;DHT22;16599;47.078;15.536;2022-10-19T15:25:33;17.00;99.90
29687;DHT22;16599;47.078;15.536;2022-10-19T15:28:34;16.90;99.90
29687;DHT22;16599;47.078;15.536;2022-10-19T15:31:23;16.80;99.90
29687;DHT22;16599;47.078;15.536;2022-10-19T15:33:53;16.50;99.90
29687;DHT22;16599;47.078;15.536;2022-10-19T15:36:21;16.30;99.90
29687;DHT22;16599;47.078;15.536;2022-10-19T15:39:03;16.20;99.90
29687;DHT22;16599;47.078;15.536;2022-10-19T15:41:50;15.90;99.90
29687;DHT22;16599;47.078;15.536;2022-10-19T15:44:41;16.00;99.90
29687;DHT22;16599;47.078;15.536;2022-10-19T15:52:23;15.80;99.90
29687;DHT22;16599;47.078;15.536;2022-10-19T15:54:50;15.60;99.90
29687;DHT22;16599;47.078;15.536;2022-10-19T15:57:33;15.50;99.90
29687;DHT22;16599;47.078;15.536;2022-10-19T16:00:21;15.60;99.90
29687;DHT22;16599;47.078;15.536;2022-10-19T16:02:48;15.50;99.90
29687;DHT22;16599;47.078;15.536;2022-10-19T16:05:15;15.50;99.90
29687;DHT22;16599;47.078;15.536;2022-10-19T16:07:42;15.50;99.90
29687;DHT22;16599;47.078;15.536;2022-10-19T16:10:17;15.40;99.90
29687;DHT22;16599;47.078;15.536;2022-10-19T16:12:45;15.40;99.90
29687;DHT22;16599;47.078;15.536;2022-10-19T16:15:16;15.20;99.90
29687;DHT22;16599;47.078;15.536;2022-10-19T16:17:53;15.10;99.90
29687;DHT22;16599;47.078;15.536;2022-10-19T16:20:21;15.20;99.90
29687;DHT22;16599;47.078;15.536;2022-10-19T16:22:49;15.20;99.90
29687;DHT22;16599;47.078;15.536;2022-10-19T16:25:16;15.00;99.90
29687;DHT22;16599;47.078;15.536;2022-10-19T16:27:43;14.90;99.90
29687;DHT22;16599;47.078;15.536;2022-10-19T16:30:10;14.90;99.90
29687;DHT22;16599;47.078;15.536;2022-10-19T16:32:37;14.70;99.90
29687;DHT22;16599;47.078;15.536;2022-10-19T16:35:06;14.60;99.90
29687;DHT22;16599;47.078;15.536;2022-10-19T16:37:34;14.40;99.90
29687;DHT22;16599;47.078;15.536;2022-10-19T16:40:01;14.00;99.90
29687;DHT22;16599;47.078;15.536;2022-10-19T16:42:30;14.00;99.90
29687;DHT22;16599;47.078;15.536;2022-10-19T16:44:56;14.20;99.90
29687;DHT22;16599;47.078;15.536;2022-10-19T16:47:23;14.30;99.90
29687;DHT22;16599;47.078;15.536;2022-10-19T16:49:58;14.40;99.90
29687;DHT22;16599;47.078;15.536;2022-10-19T16:52:26;14.30;99.90
29687;DHT22;16599;47.078;15.536;2022-10-19T16:54:54;14.30;99.90
29687;DHT22;16599;47.078;15.536;2022-10-19T16:57:20;14.30;99.90
29687;DHT22;16599;47.078;15.536;2022-10-19T16:59:51;14.40;99.90
29687;DHT22;16599;47.078;15.536;2022-10-19T17:02:24;14.60;99.90
29687;DHT22;16599;47.078;15.536;2022-10-19T17:04:50;14.60;99.90
29687;DHT22;16599;47.078;15.536;2022-10-19T17:07:18;14.40;99.90
29687;DHT22;16599;47.078;15.536;2022-10-19T17:09:44;14.30;99.90
29687;DHT22;16599;47.078;15.536;2022-10-19T17:12:15;14.20;99.90
29687;DHT22;16599;47.078;15.536;2022-10-19T17:14:42;14.30;99.90
29687;DHT22;16599;47.078;15.536;2022-10-19T17:17:10;14.20;99.90
29687;DHT22;16599;47.078;15.536;2022-10-19T17:19:37;14.20;99.90
29687;DHT22;16599;47.078;15.536;2022-10-19T17:22:04;14.20;99.90
29687;DHT22;16599;47.078;15.536;2022-10-19T17:24:31;14.20;99.90
29687;DHT22;16599;47.078;15.536;2022-10-19T17:27:00;14.20;99.90
29687;DHT22;16599;47.078;15.536;2022-10-19T17:29:27;14.20;99.90
29687;DHT22;16599;47.078;15.536;2022-10-19T17:31:54;14.10;99.90
29687;DHT22;16599;47.078;15.536;2022-10-19T17:34:21;14.10;99.90
29687;DHT22;16599;47.078;15.536;2022-10-19T17:36:48;14.20;99.90
29687;DHT22;16599;47.078;15.536;2022-10-19T17:39:21;14.20;99.90
29687;DHT22;16599;47.078;15.536;2022-10-19T17:41:56;14.30;99.90
29687;DHT22;16599;47.078;15.536;2022-10-19T17:44:28;14.20;99.90
29687;DHT22;16599;47.078;15.536;2022-10-19T17:46:56;14.00;99.90
29687;DHT22;16599;47.078;15.536;2022-10-19T17:49:23;13.80;99.90
29687;DHT22;16599;47.078;15.536;2022-10-19T17:51:51;13.70;99.90
29687;DHT22;16599;47.078;15.536;2022-10-19T17:54:18;13.70;99.90
29687;DHT22;16599;47.078;15.536;2022-10-19T17:56:46;13.70;99.90
29687;DHT22;16599;47.078;15.536;2022-10-19T17:59:12;13.70;99.90
29687;DHT22;16599;47.078;15.536;2022-10-19T18:01:40;13.60;99.90
29687;DHT22;16599;47.078;15.536;2022-10-19T18:04:06;13.20;99.90
29687;DHT22;16599;47.078;15.536;2022-10-19T18:06:35;13.00;99.90
29687;DHT22;16599;47.078;15.536;2022-10-19T18:09:05;13.10;99.90
29687;DHT22;16599;47.078;15.536;2022-10-19T18:11:42;12.90;99.90
29687;DHT22;16599;47.078;15.536;2022-10-19T18:14:11;13.00;99.90
29687;DHT22;16599;47.078;15.536;2022-10-19T18:16:41;12.80;99.90
29687;DHT22;16599;47.078;15.536;2022-10-19T18:19:11;12.70;99.90
29687;DHT22;16599;47.078;15.536;2022-10-19T18:21:41;12.50;99.90